Time;durP1;ratioP1;P1;durP2;ratioP2;P2;SDS_P1;SDS_P2;PMS_P1;PMS_P2;Temp;Humidity;BMP_temperature;BMP_pressure;BME280_temperature;BME280_humidity;BME280_pressure;Samples;Min_cycle;Max_cycle;Signal;HPM_P1;HPM_P2
2020/12/11 00:00:15;;;;;;;3.10;2.80;;;;;;;7.99;100.00;95440.97;5052305;28;20202;-82
2020/12/11 00:02:43;;;;;;;3.20;2.90;;;;;;;7.96;100.00;95446.50;5052032;28;20686;-82
2020/12/11 00:05:10;;;;;;;4.00;3.60;;;;;;;7.91;100.00;95440.97;5052622;28;20201;-82
2020/12/11 00:07:38;;;;;;;5.30;3.63;;;;;;;7.88;100.00;95438.66;5052473;28;20221;-83
2020/12/11 00:10:07;;;;;;;4.83;4.43;;;;;;;7.94;100.00;95436.22;5051932;28;20190;-82
2020/12/11 00:12:34;;;;;;;4.40;4.00;;;;;;;7.95;100.00;95442.28;5050904;28;20198;-82
2020/12/11 00:15:01;;;;;;;4.53;4.10;;;;;;;7.91;100.00;95436.53;5051611;28;20229;-82
2020/12/11 00:17:28;;;;;;;11.43;5.40;;;;;;;7.90;100.00;95439.31;5052306;28;20202;-82
2020/12/11 00:19:57;;;;;;;8.20;7.27;;;;;;;7.91;100.00;95439.16;5052062;28;20625;-81
2020/12/11 00:22:24;;;;;;;6.73;5.57;;;;;;;7.91;100.00;95427.88;5052435;28;20615;-82
2020/12/11 00:24:51;;;;;;;6.33;5.73;;;;;;;7.88;100.00;95422.97;5052196;28;20670;-83
2020/12/11 00:27:19;;;;;;;6.23;5.00;;;;;;;7.84;100.00;95431.13;5051601;28;20728;-81
2020/12/11 00:29:46;;;;;;;6.73;6.03;;;;;;;7.88;100.00;95418.56;5051963;28;20198;-82
2020/12/11 00:32:13;;;;;;;5.60;4.90;;;;;;;7.88;100.00;95417.75;5052069;28;20194;-82
2020/12/11 00:34:42;;;;;;;6.73;3.83;;;;;;;7.84;100.00;95417.25;5051854;28;20198;-82
2020/12/11 00:37:10;;;;;;;4.40;4.00;;;;;;;7.85;100.00;95411.84;5052081;28;20643;-82
2020/12/11 00:39:37;;;;;;;4.30;3.90;;;;;;;7.86;100.00;95410.88;5051979;28;20230;-81
2020/12/11 00:42:04;;;;;;;3.70;3.40;;;;;;;7.88;100.00;95417.75;5051275;28;20344;-82
2020/12/11 00:44:30;;;;;;;3.73;3.43;;;;;;;7.88;100.00;95405.47;5043489;28;20292;-82
2020/12/11 00:47:02;;;;;;;4.33;3.90;;;;;;;7.91;100.00;95407.75;5031760;28;20238;-82
2020/12/11 00:49:29;;;;;;;3.50;3.20;;;;;;;7.93;100.00;95408.44;5032012;28;20579;-82
2020/12/11 00:51:56;;;;;;;4.90;4.50;;;;;;;7.86;100.00;95403.03;5031621;28;20285;-82
2020/12/11 00:54:24;;;;;;;5.73;4.10;;;;;;;7.90;100.00;95402.69;5031125;28;20198;-82
2020/12/11 00:56:50;;;;;;;7.17;4.27;;;;;;;7.85;100.00;95403.19;5031748;28;20238;-82
2020/12/11 00:59:17;;;;;;;3.20;2.90;;;;;;;7.88;100.00;95405.47;5031679;28;20241;-82
2020/12/11 01:01:44;;;;;;;4.03;3.73;;;;;;;7.84;100.00;95404.97;5031808;28;20202;-82
2020/12/11 01:04:11;;;;;;;4.40;3.90;;;;;;;7.85;100.00;95411.84;5031546;28;20199;-82
2020/12/11 01:06:38;;;;;;;4.43;4.03;;;;;;;7.79;100.00;95401.19;5030806;28;20203;-82
2020/12/11 01:09:05;;;;;;;3.73;3.47;;;;;;;7.78;100.00;95407.44;5031744;28;20656;-82
2020/12/11 01:11:33;;;;;;;3.60;3.30;;;;;;;7.78;100.00;95405.63;5031424;28;20289;-82
2020/12/11 01:14:00;;;;;;;3.93;3.63;;;;;;;7.77;100.00;95398.75;5031233;28;20237;-82
2020/12/11 01:16:27;;;;;;;3.00;2.67;;;;;;;7.74;100.00;95404.31;5031420;28;20808;-81
2020/12/11 01:18:54;;;;;;;4.23;3.73;;;;;;;7.78;100.00;95405.63;5030838;28;20198;-83
2020/12/11 01:21:20;;;;;;;3.47;2.80;;;;;;;7.72;100.00;95402.84;5030741;28;20227;-82
2020/12/11 01:23:47;;;;;;;3.00;2.80;;;;;;;7.77;100.00;95398.75;5031154;28;20199;-82
2020/12/11 01:26:14;;;;;;;3.17;2.97;;;;;;;7.73;100.00;95397.47;5030873;28;20855;-82
2020/12/11 01:28:42;;;;;;;4.40;4.00;;;;;;;7.69;100.00;95404.00;5031079;28;20652;-82
2020/12/11 01:31:08;;;;;;;3.17;2.83;;;;;;;7.69;100.00;95398.78;5030018;28;20199;-82
2020/12/11 01:33:35;;;;;;;3.00;2.37;;;;;;;7.72;100.00;95395.81;5030405;28;20612;-82
2020/12/11 01:36:02;;;;;;;2.63;2.30;;;;;;;7.73;100.00;95402.69;5030508;28;20199;-82
2020/12/11 01:38:29;;;;;;;2.57;2.43;;;;;;;7.67;100.00;95392.88;5031146;28;20268;-82
2020/12/11 01:40:55;;;;;;;3.07;2.87;;;;;;;7.73;100.00;95396.66;5030518;28;20203;-82
2020/12/11 01:43:22;;;;;;;4.37;3.97;;;;;;;7.63;100.00;95397.59;5030271;28;20289;-81
2020/12/11 01:45:50;;;;;;;5.07;4.67;;;;;;;7.70;100.00;95395.16;5029871;28;20238;-82
2020/12/11 01:48:17;;;;;;;4.53;4.13;;;;;;;7.69;100.00;95390.91;5030889;28;20276;-82
2020/12/11 01:50:44;;;;;;;3.83;3.53;;;;;;;7.69;100.00;95390.91;5030680;28;20202;-82
2020/12/11 01:53:12;;;;;;;2.90;2.70;;;;;;;7.70;100.00;95391.72;5030539;28;20252;-82
2020/12/11 01:55:40;;;;;;;3.13;2.93;;;;;;;7.67;100.00;95390.25;5029974;28;20206;-81
2020/12/11 01:58:14;;;;;;;2.80;2.60;;;;;;;7.64;100.00;95390.56;5030154;28;20197;-81
2020/12/11 02:00:42;;;;;;;2.93;2.73;;;;;;;7.61;100.00;95386.47;5030567;28;20195;-82
2020/12/11 02:03:12;;;;;;;3.60;3.00;;;;;;;7.60;100.00;95378.81;5030628;28;20198;-82
2020/12/11 02:05:39;;;;;;;2.70;2.50;;;;;;;7.49;100.00;95382.56;5049211;28;20205;-82
2020/12/11 02:08:06;;;;;;;3.70;3.40;;;;;;;7.56;100.00;95375.69;5050061;28;20222;-82
2020/12/11 02:10:33;;;;;;;2.70;2.33;;;;;;;7.47;100.00;95383.69;5049059;28;20236;-82
2020/12/11 02:13:06;;;;;;;4.23;3.93;;;;;;;7.51;100.00;95383.19;5049652;28;20244;-82
2020/12/11 02:15:34;;;;;;;3.50;3.20;;;;;;;7.50;100.00;95386.78;5049932;28;20198;-82
2020/12/11 02:18:00;;;;;;;5.43;3.23;;;;;;;7.44;100.00;95381.38;5050287;28;20194;-82
2020/12/11 02:20:28;;;;;;;4.67;3.20;;;;;;;7.41;100.00;95385.13;5049446;28;20268;-82
2020/12/11 02:22:56;;;;;;;15.70;5.10;;;;;;;7.42;100.00;95376.34;5049250;28;20237;-82
2020/12/11 02:25:23;;;;;;;14.63;6.10;;;;;;;7.42;100.00;95388.59;5049759;28;20201;-82
2020/12/11 02:27:50;;;;;;;20.83;5.87;;;;;;;7.39;100.00;95382.69;5050150;28;20681;-82
2020/12/11 02:30:17;;;;;;;30.60;6.70;;;;;;;7.43;100.00;95379.75;5049269;28;20201;-82
2020/12/11 02:32:44;;;;;;;26.67;6.47;;;;;;;7.39;100.00;95374.03;5049742;28;20908;-82
2020/12/11 02:35:11;;;;;;;69.17;9.30;;;;;;;7.36;100.00;95374.34;5049226;28;20197;-82
2020/12/11 02:37:38;;;;;;;35.77;8.07;;;;;;;7.38;100.00;95372.41;5048677;28;20241;-82
2020/12/11 02:40:07;;;;;;;50.20;7.80;;;;;;;7.31;100.00;95376.66;5049828;28;20820;-82
2020/12/11 02:42:35;;;;;;;30.23;6.90;;;;;;;7.34;100.00;95371.91;5049729;28;20256;-82
2020/12/11 02:45:02;;;;;;;101.63;14.43;;;;;;;7.34;100.00;95371.06;5049286;28;20779;-82
2020/12/11 02:47:32;;;;;;;112.93;18.13;;;;;;;7.34;100.00;95371.06;5049082;28;20240;-82
2020/12/11 02:50:00;;;;;;;128.33;19.00;;;;;;;7.36;100.00;95372.56;5048782;28;20970;-81
2020/12/11 02:52:27;;;;;;;91.27;14.23;;;;;;;7.32;100.00;95379.09;5049553;28;20193;-83
2020/12/11 02:54:54;;;;;;;88.80;12.37;;;;;;;7.34;100.00;95377.16;5049386;28;20198;-82
2020/12/11 02:57:22;;;;;;;84.27;14.37;;;;;;;7.29;100.00;95375.97;5049815;28;20202;-81
2020/12/11 02:59:48;;;;;;;29.37;6.90;;;;;;;7.30;100.00;95373.19;5049063;28;20646;-82
2020/12/11 03:02:15;;;;;;;10.00;4.77;;;;;;;7.31;100.00;95382.69;5048722;28;20232;-82
2020/12/11 03:04:42;;;;;;;3.60;3.33;;;;;;;7.34;100.00;95382.38;5049279;28;20233;-82
2020/12/11 03:07:09;;;;;;;3.53;3.23;;;;;;;7.35;100.00;95378.75;5049252;28;20186;-82
2020/12/11 03:09:36;;;;;;;3.10;2.87;;;;;;;7.39;100.00;95384.50;5049421;28;20283;-82
2020/12/11 03:12:02;;;;;;;2.23;2.13;;;;;;;7.46;100.00;95376.81;5048930;28;20208;-82
2020/12/11 03:14:30;;;;;;;3.50;3.30;;;;;;;7.42;100.00;95378.94;5049106;28;20198;-81
2020/12/11 03:16:57;;;;;;;3.33;3.03;;;;;;;7.44;100.00;95381.38;5049138;28;20202;-82
2020/12/11 03:19:24;;;;;;;3.07;2.87;;;;;;;7.42;100.00;95383.38;5049369;28;20204;-82
2020/12/11 03:21:51;;;;;;;3.83;3.10;;;;;;;7.47;100.00;95381.06;5048939;28;20709;-82
2020/12/11 03:24:18;;;;;;;3.70;3.40;;;;;;;7.47;100.00;95386.28;5053129;28;20256;-82
2020/12/11 03:26:44;;;;;;;2.20;2.10;;;;;;;7.47;100.00;95386.28;5052814;28;20670;-82
2020/12/11 03:29:11;;;;;;;3.80;3.50;;;;;;;7.44;100.00;95386.63;5052427;28;20303;-82
2020/12/11 03:31:39;;;;;;;3.73;3.30;;;;;;;7.44;100.00;95391.84;5053273;28;20206;-82
2020/12/11 03:34:06;;;;;;;4.67;4.27;;;;;;;7.45;100.00;95391.69;5053133;28;20207;-82
2020/12/11 03:36:32;;;;;;;9.37;8.50;;;;;;;7.51;100.00;95393.66;5052849;28;20259;-82
2020/12/11 03:38:59;;;;;;;6.17;5.67;;;;;;;7.44;100.00;95392.66;5052548;28;20222;-83
2020/12/11 03:41:26;;;;;;;6.87;6.27;;;;;;;7.49;100.00;95398.25;5051951;28;20237;-82
2020/12/11 03:43:53;;;;;;;16.13;14.60;;;;;;;7.44;100.00;95390.03;5052984;28;20202;-82
2020/12/11 03:46:21;;;;;;;5.50;4.93;;;;;;;7.39;100.00;95393.16;5052559;28;20740;-82
2020/12/11 03:48:50;;;;;;;3.60;3.33;;;;;;;7.38;100.00;95396.75;5052666;28;20221;-82
2020/12/11 03:51:18;;;;;;;4.03;3.67;;;;;;;7.32;100.00;95393.94;5052306;28;20281;-82
2020/12/11 03:53:46;;;;;;;4.70;4.10;;;;;;;7.39;100.00;95401.00;5052380;28;20194;-82
2020/12/11 03:56:14;;;;;;;3.47;3.17;;;;;;;7.33;100.00;95395.59;5052455;28;20244;-82
2020/12/11 03:58:41;;;;;;;8.27;4.93;;;;;;;7.42;100.00;95393.81;5052562;28;20202;-82
2020/12/11 04:01:11;;;;;;;17.97;10.57;;;;;;;7.43;100.00;95398.06;5052375;28;20198;-82
2020/12/11 04:03:38;;;;;;;7.37;5.03;;;;;;;7.43;100.00;95400.69;5052575;28;20613;-82
2020/12/11 04:06:09;;;;;;;4.70;4.30;;;;;;;7.42;100.00;95405.09;5052546;28;20242;-82
2020/12/11 04:08:36;;;;;;;3.40;3.20;;;;;;;7.33;100.00;95404.25;5052665;28;20224;-82
2020/12/11 04:11:05;;;;;;;5.67;5.07;;;;;;;7.38;100.00;95411.63;5051967;28;20205;-83
2020/12/11 04:13:32;;;;;;;9.40;8.53;;;;;;;7.38;100.00;95409.81;5052375;28;20289;-82
2020/12/11 04:15:58;;;;;;;9.30;8.50;;;;;;;7.39;100.00;95415.88;5052115;28;20256;-82
2020/12/11 04:18:25;;;;;;;7.07;6.37;;;;;;;7.45;100.00;95409.16;5052234;28;20248;-82
2020/12/11 04:20:52;;;;;;;3.60;3.33;;;;;;;7.49;100.00;95413.13;5051069;28;20237;-82
2020/12/11 04:23:20;;;;;;;1.30;1.20;;;;;;;7.31;100.00;95414.06;5052124;28;20662;-82
2020/12/11 04:25:53;;;;;;;0.70;0.70;;;;;;;7.17;100.00;95408.59;5052065;28;20237;-82
2020/12/11 04:28:21;;;;;;;0.80;0.80;;;;;;;7.10;100.00;95417.09;5052364;28;20222;-83
2020/12/11 04:30:48;;;;;;;0.90;0.90;;;;;;;6.97;100.00;95418.50;5051540;28;20193;-82
2020/12/11 04:33:14;;;;;;;3.67;2.30;;;;;;;6.91;100.00;95417.31;5050730;28;20201;-84
2020/12/11 04:35:41;;;;;;;1.50;1.37;;;;;;;6.86;100.00;95415.19;5051869;28;20256;-83
2020/12/11 04:38:08;;;;;;;1.10;1.00;;;;;;;6.84;100.00;95422.34;5051742;28;20285;-83
2020/12/11 04:40:36;;;;;;;9.10;6.30;;;;;;;6.80;100.00;95422.84;5051792;28;20264;-83
2020/12/11 04:43:04;;;;;;;1.43;1.33;;;;;;;6.76;100.00;95417.09;5051665;28;20256;-84
2020/12/11 04:45:31;;;;;;;2.43;2.13;;;;;;;6.85;100.00;95421.38;5038298;28;20299;-83
2020/12/11 04:47:58;;;;;;;3.93;3.07;;;;;;;6.71;100.00;95427.19;5031781;28;20262;-84
2020/12/11 04:50:25;;;;;;;1.63;1.53;;;;;;;6.79;100.00;95431.63;5031915;28;20635;-83
2020/12/11 04:52:55;;;;;;;2.33;2.13;;;;;;;6.72;100.00;95439.28;5031591;28;20243;-83
2020/12/11 04:55:22;;;;;;;0.50;0.50;;;;;;;6.77;100.00;95438.81;5031482;28;20202;-83
2020/12/11 04:57:51;;;;;;;0.43;0.40;;;;;;;6.70;100.00;95443.84;5030900;28;20294;-83
2020/12/11 05:00:19;;;;;;;2.80;1.80;;;;;;;6.74;100.00;95446.94;5031443;28;20289;-83
2020/12/11 05:02:47;;;;;;;4.10;1.33;;;;;;;6.77;100.00;95454.47;5031480;28;20290;-83
2020/12/11 05:05:15;;;;;;;1.73;1.27;;;;;;;6.60;100.00;95448.34;5031627;28;20234;-82
2020/12/11 05:07:43;;;;;;;0.40;0.40;;;;;;;6.66;100.00;95450.34;5031035;28;20194;-83
2020/12/11 05:10:11;;;;;;;0.40;0.40;;;;;;;6.63;100.00;95450.66;5030769;28;20706;-83
2020/12/11 05:12:38;;;;;;;0.77;0.77;;;;;;;6.60;100.00;95459.59;5031296;28;20256;-83
2020/12/11 05:15:07;;;;;;;0.57;0.57;;;;;;;6.65;100.00;95459.97;5031337;28;20238;-83
2020/12/11 05:17:36;;;;;;;1.17;1.00;;;;;;;6.60;100.00;95462.22;5031386;28;20233;-83
2020/12/11 05:20:05;;;;;;;1.17;1.07;;;;;;;6.64;100.00;95457.50;5030752;28;20231;-83
2020/12/11 05:22:34;;;;;;;0.30;0.30;;;;;;;6.64;100.00;95458.31;5031079;28;20202;-83
2020/12/11 05:25:01;;;;;;;0.40;0.40;;;;;;;6.63;100.00;95458.47;5030710;28;20834;-86
2020/12/11 05:27:34;;;;;;;0.30;0.30;;;;;;;6.60;100.00;95456.16;5033101;28;20202;-84
2020/12/11 05:30:19;;;;;;;0.60;0.60;;;;;;;6.57;100.00;95474.75;5032941;28;20175;-83
2020/12/11 05:32:48;;;;;;;0.30;0.30;;;;;;;6.56;100.00;95473.13;5033205;28;20190;-85
2020/12/11 05:35:25;;;;;;;1.00;1.00;;;;;;;6.51;100.00;95477.97;5032808;28;20237;-83
2020/12/11 05:37:54;;;;;;;3.23;2.27;;;;;;;6.49;100.00;95482.53;5032820;28;20186;-83
2020/12/11 05:40:22;;;;;;;1.40;1.20;;;;;;;6.42;100.00;95490.16;5031890;28;20244;-83
2020/12/11 05:43:20;;;;;;;1.43;1.03;;;;;;;6.39;100.00;95500.91;5032093;28;20226;-83
2020/12/11 05:45:52;;;;;;;1.50;1.17;;;;;;;6.18;100.00;95494.22;4971266;28;20221;-83
2020/12/11 05:48:20;;;;;;;3.33;3.03;;;;;;;6.36;100.00;95507.22;5020687;28;20229;-83
2020/12/11 05:50:47;;;;;;;3.27;3.03;;;;;;;6.18;100.00;95511.66;5032603;28;20642;-82
2020/12/11 05:53:14;;;;;;;1.30;1.20;;;;;;;6.13;100.00;95509.50;5032728;28;20233;-83
2020/12/11 05:55:41;;;;;;;2.57;2.37;;;;;;;6.06;100.00;95518.91;5032464;28;20203;-83
2020/12/11 05:58:12;;;;;;;0.47;0.47;;;;;;;6.17;100.00;95520.47;5032705;28;20198;-83
2020/12/11 06:00:40;;;;;;;2.83;2.43;;;;;;;6.12;100.00;95525.28;5032601;28;20622;-83
2020/12/11 06:03:07;;;;;;;13.23;8.03;;;;;;;6.17;100.00;95523.88;5032897;28;20273;-82
2020/12/11 06:05:39;;;;;;;20.83;10.63;;;;;;;6.29;100.00;95528.88;5032649;28;20199;-83
2020/12/11 06:08:10;;;;;;;23.07;14.33;;;;;;;6.33;100.00;95525.81;5032773;28;20706;-83
2020/12/11 06:10:39;;;;;;;12.73;10.57;;;;;;;6.33;100.00;95536.25;5032108;28;20195;-82
2020/12/11 06:13:06;;;;;;;6.23;5.30;;;;;;;6.37;100.00;95535.00;5032458;28;20697;-83
2020/12/11 06:15:39;;;;;;;13.53;9.93;;;;;;;6.49;100.00;95538.19;5032518;28;20248;-82
2020/12/11 06:18:10;;;;;;;3.30;3.00;;;;;;;6.49;100.00;95542.59;5032416;28;20202;-83
2020/12/11 06:20:38;;;;;;;6.63;3.43;;;;;;;6.54;100.00;95553.38;5031774;28;20234;-83
2020/12/11 06:23:24;;;;;;;8.23;6.60;;;;;;;6.60;100.00;95550.97;5032377;28;20191;-83
2020/12/11 06:25:53;;;;;;;8.47;5.90;;;;;;;6.59;100.00;95549.34;5031696;28;20652;-82
2020/12/11 06:28:39;;;;;;;19.47;14.50;;;;;;;6.58;100.00;95547.72;5031925;28;20276;-83
2020/12/11 06:31:08;;;;;;;42.10;28.03;;;;;;;6.63;100.00;95552.47;5031944;28;20256;-83
2020/12/11 06:33:35;;;;;;;53.53;43.50;;;;;;;6.65;100.00;95553.13;5032123;28;20245;-83
2020/12/11 06:36:05;;;;;;;40.47;32.07;;;;;;;6.62;100.00;95553.47;5031568;28;20199;-82
2020/12/11 06:38:49;;;;;;;65.60;49.63;;;;;;;6.62;100.00;95553.47;5032087;28;20237;-82
2020/12/11 06:41:39;;;;;;;59.43;50.87;;;;;;;6.60;100.00;95550.97;5031895;28;20199;-83
2020/12/11 06:44:17;;;;;;;11.17;8.77;;;;;;;6.62;100.00;95556.06;5032008;28;20191;-83
2020/12/11 06:47:02;;;;;;;8.27;5.60;;;;;;;6.60;100.00;95560.63;5031588;28;20672;-83
2020/12/11 06:49:29;;;;;;;3.60;3.30;;;;;;;6.49;100.00;95568.69;5032233;28;20206;-83
2020/12/11 06:52:15;;;;;;;6.40;5.50;;;;;;;6.40;100.00;95568.59;5031636;28;20245;-82
2020/12/11 06:54:52;;;;;;;3.87;3.47;;;;;;;6.36;100.00;95566.44;5031797;28;20313;-82
2020/12/11 06:57:44;;;;;;;3.20;2.83;;;;;;;6.15;100.00;95567.56;5034605;28;20260;-82
2020/12/11 07:00:38;;;;;;;1.60;1.50;;;;;;;6.14;100.00;95580.75;5036096;28;20567;-83
2020/12/11 07:03:26;;;;;;;2.20;2.00;;;;;;;6.18;100.00;95582.91;5036316;28;20195;-83
2020/12/11 07:06:04;;;;;;;1.57;1.47;;;;;;;6.22;100.00;95582.63;5035932;28;20179;-84
2020/12/11 07:08:32;;;;;;;1.70;1.60;;;;;;;6.39;100.00;95594.88;5035652;28;20206;-83
2020/12/11 07:11:11;;;;;;;2.10;1.90;;;;;;;6.49;100.00;95590.38;5035773;28;20209;-83
2020/12/11 07:13:50;;;;;;;2.00;1.80;;;;;;;6.64;100.00;95594.09;5035797;28;20225;-83
2020/12/11 07:16:17;;;;;;;2.13;2.03;;;;;;;6.59;100.00;95600.75;5035878;28;20186;-83
2020/12/11 07:18:44;;;;;;;3.63;3.33;;;;;;;6.67;100.00;95596.41;5035481;28;20199;-83
2020/12/11 07:21:12;;;;;;;9.30;7.23;;;;;;;6.81;100.00;95596.84;5035206;28;20238;-83
2020/12/11 07:23:41;;;;;;;61.33;36.97;;;;;;;6.96;100.00;95594.50;5035739;28;20301;-83
2020/12/11 07:26:08;;;;;;;42.23;27.93;;;;;;;6.94;100.00;95593.84;5035203;28;20202;-83
2020/12/11 07:28:35;;;;;;;34.47;26.80;;;;;;;6.92;100.00;95596.59;5035719;28;20309;-83
2020/12/11 07:31:02;;;;;;;23.20;20.03;;;;;;;6.85;100.00;95596.38;5035558;28;20306;-83
2020/12/11 07:33:35;;;;;;;6.97;6.27;;;;;;;6.91;100.00;95601.00;5035378;28;20206;-83
2020/12/11 07:36:03;;;;;;;5.07;4.57;;;;;;;6.89;100.00;95605.56;5035444;28;20268;-83
2020/12/11 07:38:31;;;;;;;3.93;2.70;;;;;;;6.93;100.00;95607.84;5035021;28;20199;-82
2020/12/11 07:41:03;;;;;;;3.17;2.87;;;;;;;6.96;100.00;95604.94;5035111;28;20256;-83
2020/12/11 07:43:30;;;;;;;5.77;3.97;;;;;;;7.03;100.00;95617.28;5035285;28;20187;-83
2020/12/11 07:45:57;;;;;;;1.70;1.60;;;;;;;7.02;100.00;95627.84;5034867;28;20694;-83
2020/12/11 07:48:24;;;;;;;1.70;1.60;;;;;;;7.29;100.00;95635.56;5034969;28;20607;-83
2020/12/11 07:50:52;;;;;;;3.07;2.87;;;;;;;7.13;100.00;95635.44;5035234;28;20207;-83
2020/12/11 07:53:19;;;;;;;3.60;2.60;;;;;;;7.12;100.00;95641.66;5035091;28;20217;-82
2020/12/11 07:55:46;;;;;;;4.73;3.53;;;;;;;7.30;100.00;95645.03;5034686;28;20205;-83
2020/12/11 07:58:14;;;;;;;5.93;4.63;;;;;;;7.33;100.00;95636.06;5041719;28;20610;-83
2020/12/11 08:00:41;;;;;;;5.07;4.40;;;;;;;7.39;100.00;95646.75;5054295;28;20202;-84
2020/12/11 08:03:08;;;;;;;2.47;2.27;;;;;;;7.56;100.00;95650.28;5054049;28;20202;-84
2020/12/11 08:05:37;;;;;;;1.73;1.63;;;;;;;7.26;100.00;95650.72;5054830;28;20587;-84
2020/12/11 08:08:05;;;;;;;1.40;1.30;;;;;;;7.12;100.00;95649.50;5053905;28;20286;-84
2020/12/11 08:10:38;;;;;;;2.50;1.60;;;;;;;7.25;100.00;95643.88;5054644;28;20225;-84
2020/12/11 08:13:13;;;;;;;2.00;1.90;;;;;;;7.37;100.00;95645.25;5054239;28;20194;-84
2020/12/11 08:15:42;;;;;;;2.10;2.00;;;;;;;7.23;100.00;95651.03;5054938;28;20285;-84
2020/12/11 08:18:19;;;;;;;1.70;1.60;;;;;;;7.15;100.00;95657.03;5054450;28;20280;-84
2020/12/11 08:20:48;;;;;;;2.33;1.83;;;;;;;7.19;100.00;95650.53;5052038;28;20241;-84
2020/12/11 08:23:38;;;;;;;1.90;1.70;;;;;;;7.13;100.00;95654.59;5053954;28;20208;-84
2020/12/11 08:26:13;;;;;;;2.77;2.57;;;;;;;7.38;100.00;95650.34;5041648;28;20206;-84
2020/12/11 08:28:40;;;;;;;2.10;1.97;;;;;;;7.51;100.00;95644.66;5054331;28;20657;-84
2020/12/11 08:31:23;;;;;;;4.73;2.17;;;;;;;7.28;100.00;95647.00;5053912;28;20204;-84
2020/12/11 08:33:51;;;;;;;2.50;2.30;;;;;;;7.35;100.00;95644.59;5054084;28;20634;-84
2020/12/11 08:36:23;;;;;;;1.33;1.23;;;;;;;7.33;100.00;95642.13;5053963;28;20201;-84
2020/12/11 08:39:07;;;;;;;2.10;2.00;;;;;;;7.70;100.00;95637.59;5054044;28;20276;-84
2020/12/11 08:41:37;;;;;;;3.70;2.40;;;;;;;8.50;100.00;95630.19;5053679;28;20289;-85
2020/12/11 08:44:07;;;;;;;3.27;2.90;;;;;;;9.11;100.00;95625.47;5054096;28;20205;-85
2020/12/11 08:46:42;;;;;;;3.10;2.47;;;;;;;9.62;100.00;95632.09;5053660;28;20186;-84
2020/12/11 08:49:15;;;;;;;3.00;2.27;;;;;;;9.48;100.00;95624.91;5053850;28;20209;-84
2020/12/11 08:51:42;;;;;;;3.40;1.67;;;;;;;9.55;100.00;95618.03;5052948;28;20190;-84
2020/12/11 08:54:10;;;;;;;1.47;1.37;;;;;;;9.73;100.00;95620.41;5053800;28;20233;-84
2020/12/11 08:56:37;;;;;;;1.40;1.30;;;;;;;10.02;100.00;95617.22;5044751;28;20209;-85
2020/12/11 08:59:03;;;;;;;1.07;1.00;;;;;;;9.80;100.00;95620.56;5033728;28;20227;-85
2020/12/11 09:01:30;;;;;;;5.53;4.23;;;;;;;10.03;100.00;95618.84;5033429;28;20257;-84
2020/12/11 09:03:58;;;;;;;7.03;4.43;;;;;;;10.18;100.00;95616.31;5033300;28;20210;-85
2020/12/11 09:06:25;;;;;;;2.77;2.27;;;;;;;9.73;100.00;95613.41;5033083;28;20202;-85
2020/12/11 09:08:51;;;;;;;3.57;2.97;;;;;;;10.19;100.00;95613.53;5033532;28;20227;-85
2020/12/11 09:11:18;;;;;;;3.90;1.97;;;;;;;10.26;100.00;95613.69;5033076;28;20199;-85
2020/12/11 09:13:45;;;;;;;1.43;1.20;;;;;;;9.93;100.00;95612.97;5033125;28;20203;-84
2020/12/11 09:16:12;;;;;;;1.33;1.07;;;;;;;9.91;98.74;95615.78;5033359;28;20195;-85
2020/12/11 09:18:38;;;;;;;4.33;2.67;;;;;;;10.20;99.11;95599.38;5033532;28;20198;-85
2020/12/11 09:21:06;;;;;;;1.93;1.73;;;;;;;10.40;98.49;95599.00;5032917;28;20245;-85
2020/12/11 09:23:33;;;;;;;2.37;2.13;;;;;;;10.65;97.99;95608.34;5033118;28;20641;-85
2020/12/11 09:26:00;;;;;;;1.70;1.60;;;;;;;10.76;95.84;95608.94;5032924;28;20253;-86
2020/12/11 09:28:27;;;;;;;1.37;1.27;;;;;;;10.93;93.93;95603.34;5033115;28;20757;-83
2020/12/11 09:30:53;;;;;;;0.80;0.80;;;;;;;10.90;91.40;95608.16;5032988;28;20202;-83
2020/12/11 09:33:22;;;;;;;1.67;1.57;;;;;;;10.95;90.75;95608.47;5035975;28;20633;-83
2020/12/11 09:35:49;;;;;;;0.80;0.80;;;;;;;11.16;87.78;95607.78;5053117;28;20293;-83
2020/12/11 09:38:17;;;;;;;0.90;0.90;;;;;;;11.13;88.54;95610.78;5053201;28;20201;-84
2020/12/11 09:40:47;;;;;;;0.80;0.80;;;;;;;10.95;87.15;95608.47;5052952;28;20194;-84
2020/12/11 09:46:16;;;;;;;0.50;0.50;;;;;;;11.54;84.01;95620.91;5052760;28;20174;-84
2020/12/11 09:48:46;;;;;;;0.90;0.90;;;;;;;11.38;83.78;95613.97;5052530;28;20701;-84
2020/12/11 09:54:08;;;;;;;0.97;0.97;;;;;;;11.56;80.36;95605.75;5039877;28;20213;-84
2020/12/11 09:56:34;;;;;;;3.00;2.63;;;;;;;11.55;82.26;95615.47;5052765;28;20193;-84
2020/12/11 09:59:03;;;;;;;5.50;3.87;;;;;;;11.61;82.55;95609.47;5052237;28;20194;-84
2020/12/11 10:01:43;;;;;;;16.83;13.30;;;;;;;11.61;81.24;95611.28;5052322;28;20626;-85
2020/12/11 10:04:09;;;;;;;2.40;2.20;;;;;;;12.18;80.86;95610.63;5052692;28;20193;-84
2020/12/11 10:06:36;;;;;;;2.20;2.00;;;;;;;12.62;79.73;95609.72;5052462;28;20547;-84
2020/12/11 10:09:04;;;;;;;1.03;0.90;;;;;;;12.53;79.10;95603.72;5052360;28;20234;-84
2020/12/11 10:11:31;;;;;;;5.77;0.93;;;;;;;12.88;78.57;95609.16;5052086;28;20280;-85
2020/12/11 10:14:12;;;;;;;0.57;0.57;;;;;;;13.01;78.56;95601.34;5052312;28;20193;-84
2020/12/11 10:16:39;;;;;;;0.70;0.70;;;;;;;12.77;79.96;95605.19;5052142;28;20646;-84
2020/12/11 10:19:06;;;;;;;0.83;0.83;;;;;;;13.30;78.97;95607.50;5052044;28;20205;-84
2020/12/11 10:21:33;;;;;;;9.00;6.47;;;;;;;13.05;74.69;95602.59;5051808;28;20239;-85
2020/12/11 10:23:59;;;;;;;1.87;1.70;;;;;;;13.21;76.85;95593.63;5052293;28;20210;-84
2020/12/11 10:26:28;;;;;;;1.00;1.00;;;;;;;13.55;75.12;95599.97;5052004;28;20207;-84
2020/12/11 10:28:55;;;;;;;3.57;3.00;;;;;;;12.50;78.14;95598.03;5051334;28;20279;-84
2020/12/11 10:31:21;;;;;;;2.80;1.83;;;;;;;11.54;83.70;95603.31;5051429;28;20198;-85
2020/12/11 10:33:48;;;;;;;2.43;2.20;;;;;;;11.20;87.41;95603.81;5052109;28;20205;-85
2020/12/11 10:36:15;;;;;;;2.33;1.70;;;;;;;11.32;88.57;95594.47;5051789;28;20296;-85
2020/12/11 10:38:41;;;;;;;4.43;2.60;;;;;;;11.72;87.72;95599.50;5051963;28;20191;-84
2020/12/11 10:41:08;;;;;;;8.80;8.00;;;;;;;11.87;88.75;95605.59;5051630;28;20204;-85
2020/12/11 10:43:36;;;;;;;2.00;1.80;;;;;;;12.20;86.65;95594.66;5051921;28;20205;-84
2020/12/11 10:46:03;;;;;;;2.07;1.87;;;;;;;12.01;84.96;95593.41;5051965;28;20199;-85
2020/12/11 10:48:31;;;;;;;1.97;1.87;;;;;;;12.14;84.09;95594.38;5051575;28;20663;-85
2020/12/11 10:50:58;;;;;;;1.90;1.80;;;;;;;11.90;87.53;95595.50;5051897;28;20288;-84
2020/12/11 10:53:24;;;;;;;2.40;2.07;;;;;;;12.07;89.33;95593.50;5051930;28;20199;-85
2020/12/11 10:55:51;;;;;;;2.70;2.10;;;;;;;11.92;90.23;95592.72;5051490;28;20283;-84
2020/12/11 10:58:18;;;;;;;2.23;2.03;;;;;;;12.25;89.63;95594.91;5051722;28;20200;-84
2020/12/11 11:00:45;;;;;;;2.57;2.37;;;;;;;13.36;88.03;95592.72;5051369;28;20280;-84
2020/12/11 11:03:12;;;;;;;1.80;1.70;;;;;;;12.52;85.03;95590.75;5051680;28;20202;-85
2020/12/11 11:05:40;;;;;;;3.30;1.90;;;;;;;12.44;86.53;95589.06;5051489;28;20269;-84
2020/12/11 11:08:07;;;;;;;3.17;2.90;;;;;;;12.05;89.22;95589.41;5051523;28;20194;-84
2020/12/11 11:10:40;;;;;;;2.43;2.23;;;;;;;12.51;86.71;95579.41;5051804;28;20596;-84
2020/12/11 11:13:15;;;;;;;6.90;2.40;;;;;;;13.15;86.63;95586.44;5051413;28;20185;-85
2020/12/11 11:15:46;;;;;;;3.20;2.90;;;;;;;13.13;84.15;95575.28;5051213;28;20643;-84
2020/12/11 11:18:21;;;;;;;1.70;1.60;;;;;;;12.19;84.33;95574.56;5051332;28;20190;-85
2020/12/11 11:23:48;;;;;;;4.07;3.77;;;;;;;11.68;89.00;95579.81;5050471;28;20202;-84
2020/12/11 11:29:09;;;;;;;11.60;10.60;;;;;;;11.25;88.65;95576.94;5047260;28;20301;-84
2020/12/11 11:31:36;;;;;;;9.57;8.67;;;;;;;10.99;90.37;95578.19;5052035;28;20288;-87
2020/12/11 11:34:05;;;;;;;4.00;2.90;;;;;;;10.89;91.96;95577.59;5051776;28;20205;-87
2020/12/11 11:36:35;;;;;;;5.57;4.57;;;;;;;10.66;94.09;95580.25;5051845;28;20202;-86
2020/12/11 11:39:02;;;;;;;3.60;3.10;;;;;;;10.51;95.05;95585.44;5055666;28;20288;-87
2020/12/11 11:41:46;;;;;;;2.43;2.23;;;;;;;10.45;96.60;95583.50;5051687;28;20289;-87
2020/12/11 11:47:09;;;;;;;3.77;3.37;;;;;;;10.35;97.07;95583.72;5019783;28;20197;-87
2020/12/11 11:49:39;;;;;;;11.67;7.23;;;;;;;10.93;95.35;95573.63;5055531;28;20224;-87
2020/12/11 11:52:17;;;;;;;14.77;8.83;;;;;;;11.60;93.32;95573.63;5055232;28;20193;-86
2020/12/11 11:54:44;;;;;;;30.43;14.43;;;;;;;11.94;88.98;95572.25;5055247;28;20190;-86